sensor_id;sensor_type;location;lat;lon;timestamp;P1;durP1;ratioP1;P2;durP2;ratioP2
2257;SDS011;1136;51.574;7.706;2024-02-15T00:00:53;10.80;;;9.40;;
2257;SDS011;1136;51.574;7.706;2024-02-15T00:03:57;10.67;;;9.60;;
2257;SDS011;1136;51.574;7.706;2024-02-15T00:07:01;10.10;;;9.13;;
2257;SDS011;1136;51.574;7.706;2024-02-15T00:10:06;10.83;;;8.70;;
2257;SDS011;1136;51.574;7.706;2024-02-15T00:13:13;15.00;;;9.43;;
2257;SDS011;1136;51.574;7.706;2024-02-15T00:16:17;11.20;;;9.50;;
2257;SDS011;1136;51.574;7.706;2024-02-15T00:19:21;10.53;;;9.53;;
2257;SDS011;1136;51.574;7.706;2024-02-15T00:22:26;12.20;;;8.93;;
2257;SDS011;1136;51.574;7.706;2024-02-15T00:25:30;10.40;;;9.50;;
2257;SDS011;1136;51.574;7.706;2024-02-15T00:28:34;14.00;;;10.60;;
2257;SDS011;1136;51.574;7.706;2024-02-15T00:31:38;10.20;;;9.20;;
2257;SDS011;1136;51.574;7.706;2024-02-15T00:34:43;9.90;;;9.10;;
2257;SDS011;1136;51.574;7.706;2024-02-15T00:37:48;11.20;;;10.30;;
2257;SDS011;1136;51.574;7.706;2024-02-15T00:40:53;11.23;;;10.07;;
2257;SDS011;1136;51.574;7.706;2024-02-15T00:43:58;10.00;;;9.20;;
2257;SDS011;1136;51.574;7.706;2024-02-15T00:47:02;10.23;;;8.83;;
2257;SDS011;1136;51.574;7.706;2024-02-15T00:50:06;10.17;;;9.27;;
2257;SDS011;1136;51.574;7.706;2024-02-15T00:53:12;10.00;;;9.20;;
2257;SDS011;1136;51.574;7.706;2024-02-15T00:56:18;11.13;;;10.23;;
2257;SDS011;1136;51.574;7.706;2024-02-15T00:59:22;10.30;;;9.10;;
2257;SDS011;1136;51.574;7.706;2024-02-15T01:02:26;9.57;;;8.73;;
2257;SDS011;1136;51.574;7.706;2024-02-15T01:05:33;13.40;;;10.07;;
2257;SDS011;1136;51.574;7.706;2024-02-15T01:08:38;10.37;;;9.37;;
2257;SDS011;1136;51.574;7.706;2024-02-15T01:11:43;9.67;;;8.87;;
2257;SDS011;1136;51.574;7.706;2024-02-15T01:14:47;9.37;;;8.30;;
2257;SDS011;1136;51.574;7.706;2024-02-15T01:17:51;10.43;;;9.47;;
2257;SDS011;1136;51.574;7.706;2024-02-15T01:20:56;9.70;;;8.80;;
2257;SDS011;1136;51.574;7.706;2024-02-15T01:24:00;8.67;;;7.97;;
2257;SDS011;1136;51.574;7.706;2024-02-15T01:27:04;8.90;;;8.10;;
2257;SDS011;1136;51.574;7.706;2024-02-15T01:30:11;8.03;;;7.33;;
2257;SDS011;1136;51.574;7.706;2024-02-15T01:33:15;9.20;;;8.40;;
2257;SDS011;1136;51.574;7.706;2024-02-15T01:36:21;7.83;;;7.13;;
2257;SDS011;1136;51.574;7.706;2024-02-15T01:39:25;9.20;;;8.30;;
2257;SDS011;1136;51.574;7.706;2024-02-15T01:42:29;8.17;;;7.50;;
2257;SDS011;1136;51.574;7.706;2024-02-15T01:45:33;8.30;;;7.67;;
2257;SDS011;1136;51.574;7.706;2024-02-15T01:48:38;8.40;;;7.67;;
2257;SDS011;1136;51.574;7.706;2024-02-15T01:51:43;8.47;;;7.67;;
2257;SDS011;1136;51.574;7.706;2024-02-15T01:54:48;10.13;;;8.50;;
2257;SDS011;1136;51.574;7.706;2024-02-15T01:57:52;8.70;;;8.00;;
2257;SDS011;1136;51.574;7.706;2024-02-15T02:00:56;8.27;;;7.30;;
2257;SDS011;1136;51.574;7.706;2024-02-15T02:04:01;9.83;;;8.83;;
2257;SDS011;1136;51.574;7.706;2024-02-15T02:07:07;9.87;;;8.97;;
2257;SDS011;1136;51.574;7.706;2024-02-15T02:10:11;9.87;;;8.57;;
2257;SDS011;1136;51.574;7.706;2024-02-15T02:13:19;9.90;;;8.67;;
2257;SDS011;1136;51.574;7.706;2024-02-15T02:16:27;16.40;;;9.03;;
2257;SDS011;1136;51.574;7.706;2024-02-15T02:19:32;10.73;;;8.77;;
2257;SDS011;1136;51.574;7.706;2024-02-15T02:22:36;11.07;;;8.30;;
2257;SDS011;1136;51.574;7.706;2024-02-15T02:25:42;11.33;;;9.30;;
2257;SDS011;1136;51.574;7.706;2024-02-15T02:28:48;11.37;;;8.87;;
2257;SDS011;1136;51.574;7.706;2024-02-15T02:31:53;11.70;;;9.97;;
2257;SDS011;1136;51.574;7.706;2024-02-15T02:34:57;11.90;;;10.20;;
2257;SDS011;1136;51.574;7.706;2024-02-15T02:38:01;10.70;;;9.63;;
2257;SDS011;1136;51.574;7.706;2024-02-15T02:41:06;11.27;;;9.50;;
2257;SDS011;1136;51.574;7.706;2024-02-15T02:44:11;14.33;;;10.13;;
2257;SDS011;1136;51.574;7.706;2024-02-15T02:47:15;10.47;;;9.40;;
2257;SDS011;1136;51.574;7.706;2024-02-15T02:50:21;12.07;;;10.77;;
2257;SDS011;1136;51.574;7.706;2024-02-15T02:53:26;12.20;;;10.93;;
2257;SDS011;1136;51.574;7.706;2024-02-15T02:56:31;12.90;;;10.20;;
2257;SDS011;1136;51.574;7.706;2024-02-15T02:59:36;12.27;;;10.93;;
2257;SDS011;1136;51.574;7.706;2024-02-15T03:02:45;12.17;;;10.93;;
2257;SDS011;1136;51.574;7.706;2024-02-15T03:05:50;12.67;;;10.50;;
2257;SDS011;1136;51.574;7.706;2024-02-15T03:08:54;11.67;;;10.37;;
2257;SDS011;1136;51.574;7.706;2024-02-15T03:11:58;13.67;;;9.80;;
2257;SDS011;1136;51.574;7.706;2024-02-15T03:15:03;13.50;;;10.43;;
2257;SDS011;1136;51.574;7.706;2024-02-15T03:18:08;12.70;;;9.87;;
2257;SDS011;1136;51.574;7.706;2024-02-15T03:21:12;12.73;;;10.97;;
2257;SDS011;1136;51.574;7.706;2024-02-15T03:24:16;13.60;;;9.13;;
2257;SDS011;1136;51.574;7.706;2024-02-15T03:27:20;13.67;;;8.53;;
2257;SDS011;1136;51.574;7.706;2024-02-15T03:30:27;16.10;;;10.50;;
2257;SDS011;1136;51.574;7.706;2024-02-15T03:33:34;14.07;;;10.47;;
2257;SDS011;1136;51.574;7.706;2024-02-15T03:36:39;11.73;;;10.57;;
2257;SDS011;1136;51.574;7.706;2024-02-15T03:39:43;12.03;;;9.47;;
2257;SDS011;1136;51.574;7.706;2024-02-15T03:42:47;12.10;;;10.17;;
2257;SDS011;1136;51.574;7.706;2024-02-15T03:45:52;10.10;;;9.20;;
2257;SDS011;1136;51.574;7.706;2024-02-15T03:48:56;11.50;;;9.43;;
2257;SDS011;1136;51.574;7.706;2024-02-15T03:52:00;12.60;;;9.57;;
2257;SDS011;1136;51.574;7.706;2024-02-15T03:55:05;15.90;;;10.47;;
2257;SDS011;1136;51.574;7.706;2024-02-15T03:58:10;13.63;;;10.13;;
2257;SDS011;1136;51.574;7.706;2024-02-15T04:01:16;16.07;;;10.33;;
2257;SDS011;1136;51.574;7.706;2024-02-15T04:04:20;13.53;;;10.10;;
2257;SDS011;1136;51.574;7.706;2024-02-15T04:07:25;12.83;;;11.47;;
2257;SDS011;1136;51.574;7.706;2024-02-15T04:10:30;13.77;;;10.03;;
2257;SDS011;1136;51.574;7.706;2024-02-15T04:13:34;14.73;;;12.17;;
2257;SDS011;1136;51.574;7.706;2024-02-15T04:16:39;15.47;;;11.27;;
2257;SDS011;1136;51.574;7.706;2024-02-15T04:19:43;13.53;;;11.83;;
2257;SDS011;1136;51.574;7.706;2024-02-15T04:22:48;16.10;;;11.83;;
2257;SDS011;1136;51.574;7.706;2024-02-15T04:25:54;12.80;;;9.90;;
2257;SDS011;1136;51.574;7.706;2024-02-15T04:28:58;12.80;;;10.17;;
2257;SDS011;1136;51.574;7.706;2024-02-15T04:32:02;13.50;;;11.00;;
2257;SDS011;1136;51.574;7.706;2024-02-15T04:35:07;14.37;;;11.07;;
2257;SDS011;1136;51.574;7.706;2024-02-15T04:38:16;12.80;;;11.50;;
2257;SDS011;1136;51.574;7.706;2024-02-15T04:41:22;12.27;;;10.97;;
2257;SDS011;1136;51.574;7.706;2024-02-15T04:44:27;15.40;;;11.90;;
2257;SDS011;1136;51.574;7.706;2024-02-15T04:47:31;13.80;;;10.43;;
2257;SDS011;1136;51.574;7.706;2024-02-15T04:50:36;16.90;;;11.33;;
2257;SDS011;1136;51.574;7.706;2024-02-15T04:53:40;14.97;;;10.43;;
2257;SDS011;1136;51.574;7.706;2024-02-15T04:56:45;14.70;;;11.07;;
2257;SDS011;1136;51.574;7.706;2024-02-15T04:59:50;11.30;;;10.20;;
2257;SDS011;1136;51.574;7.706;2024-02-15T05:02:54;15.23;;;10.17;;
2257;SDS011;1136;51.574;7.706;2024-02-15T05:05:58;12.23;;;10.10;;
2257;SDS011;1136;51.574;7.706;2024-02-15T05:09:03;9.43;;;8.63;;
2257;SDS011;1136;51.574;7.706;2024-02-15T05:12:23;10.13;;;8.40;;
2257;SDS011;1136;51.574;7.706;2024-02-15T05:15:31;10.43;;;7.63;;
2257;SDS011;1136;51.574;7.706;2024-02-15T05:18:37;7.83;;;7.03;;
2257;SDS011;1136;51.574;7.706;2024-02-15T05:21:44;8.43;;;7.53;;
2257;SDS011;1136;51.574;7.706;2024-02-15T05:24:49;11.33;;;7.67;;
2257;SDS011;1136;51.574;7.706;2024-02-15T05:27:54;6.87;;;6.27;;
2257;SDS011;1136;51.574;7.706;2024-02-15T05:31:10;9.40;;;6.47;;
2257;SDS011;1136;51.574;7.706;2024-02-15T05:34:15;11.77;;;7.23;;
2257;SDS011;1136;51.574;7.706;2024-02-15T05:37:20;8.33;;;6.43;;
2257;SDS011;1136;51.574;7.706;2024-02-15T05:40:24;8.03;;;6.23;;
2257;SDS011;1136;51.574;7.706;2024-02-15T05:43:28;11.20;;;6.40;;
2257;SDS011;1136;51.574;7.706;2024-02-15T05:46:32;15.73;;;7.07;;
2257;SDS011;1136;51.574;7.706;2024-02-15T05:49:41;8.67;;;6.10;;
2257;SDS011;1136;51.574;7.706;2024-02-15T05:52:45;13.80;;;5.30;;
2257;SDS011;1136;51.574;7.706;2024-02-15T05:55:50;9.67;;;5.60;;
2257;SDS011;1136;51.574;7.706;2024-02-15T05:58:54;5.70;;;4.83;;
2257;SDS011;1136;51.574;7.706;2024-02-15T06:01:58;6.00;;;4.47;;
2257;SDS011;1136;51.574;7.706;2024-02-15T06:05:03;4.60;;;4.20;;
2257;SDS011;1136;51.574;7.706;2024-02-15T06:08:09;6.37;;;4.30;;
2257;SDS011;1136;51.574;7.706;2024-02-15T06:11:18;7.50;;;4.10;;
2257;SDS011;1136;51.574;7.706;2024-02-15T06:14:23;4.67;;;3.77;;
2257;SDS011;1136;51.574;7.706;2024-02-15T06:17:28;5.83;;;4.30;;
2257;SDS011;1136;51.574;7.706;2024-02-15T06:20:33;5.90;;;3.03;;
2257;SDS011;1136;51.574;7.706;2024-02-15T06:23:37;3.83;;;3.27;;
2257;SDS011;1136;51.574;7.706;2024-02-15T06:26:42;3.87;;;3.03;;
2257;SDS011;1136;51.574;7.706;2024-02-15T06:29:48;3.10;;;2.83;;
2257;SDS011;1136;51.574;7.706;2024-02-15T06:33:11;3.50;;;3.20;;
2257;SDS011;1136;51.574;7.706;2024-02-15T06:36:34;3.10;;;2.80;;
2257;SDS011;1136;51.574;7.706;2024-02-15T06:40:02;4.70;;;2.97;;
2257;SDS011;1136;51.574;7.706;2024-02-15T06:43:07;3.53;;;2.83;;
2257;SDS011;1136;51.574;7.706;2024-02-15T06:46:12;3.70;;;3.00;;
2257;SDS011;1136;51.574;7.706;2024-02-15T06:49:17;4.33;;;3.10;;
2257;SDS011;1136;51.574;7.706;2024-02-15T06:52:22;3.53;;;2.77;;
2257;SDS011;1136;51.574;7.706;2024-02-15T06:55:26;5.13;;;2.90;;
2257;SDS011;1136;51.574;7.706;2024-02-15T06:58:30;3.70;;;3.23;;
2257;SDS011;1136;51.574;7.706;2024-02-15T07:01:34;6.40;;;3.40;;
2257;SDS011;1136;51.574;7.706;2024-02-15T07:04:38;4.53;;;3.50;;
2257;SDS011;1136;51.574;7.706;2024-02-15T07:07:42;4.20;;;3.53;;
2257;SDS011;1136;51.574;7.706;2024-02-15T07:10:46;10.07;;;6.13;;
2257;SDS011;1136;51.574;7.706;2024-02-15T07:13:50;8.50;;;5.93;;
2257;SDS011;1136;51.574;7.706;2024-02-15T07:16:58;8.33;;;6.90;;
2257;SDS011;1136;51.574;7.706;2024-02-15T07:20:03;8.60;;;5.83;;
2257;SDS011;1136;51.574;7.706;2024-02-15T07:23:08;6.83;;;4.07;;
2257;SDS011;1136;51.574;7.706;2024-02-15T07:26:12;8.57;;;4.30;;
2257;SDS011;1136;51.574;7.706;2024-02-15T07:29:18;8.97;;;3.70;;
2257;SDS011;1136;51.574;7.706;2024-02-15T07:32:22;6.63;;;3.13;;
2257;SDS011;1136;51.574;7.706;2024-02-15T07:35:26;4.80;;;3.90;;
2257;SDS011;1136;51.574;7.706;2024-02-15T07:38:33;5.10;;;2.60;;
2257;SDS011;1136;51.574;7.706;2024-02-15T07:41:38;13.23;;;4.27;;
2257;SDS011;1136;51.574;7.706;2024-02-15T07:44:43;9.17;;;3.40;;
2257;SDS011;1136;51.574;7.706;2024-02-15T07:47:47;7.47;;;3.00;;
2257;SDS011;1136;51.574;7.706;2024-02-15T07:50:53;8.53;;;3.73;;
2257;SDS011;1136;51.574;7.706;2024-02-15T07:53:57;7.83;;;3.17;;
2257;SDS011;1136;51.574;7.706;2024-02-15T07:57:01;7.80;;;3.67;;
2257;SDS011;1136;51.574;7.706;2024-02-15T08:00:06;5.90;;;3.60;;
2257;SDS011;1136;51.574;7.706;2024-02-15T08:03:14;6.77;;;3.63;;
2257;SDS011;1136;51.574;7.706;2024-02-15T08:06:19;5.47;;;3.17;;
2257;SDS011;1136;51.574;7.706;2024-02-15T08:09:24;7.90;;;4.00;;
2257;SDS011;1136;51.574;7.706;2024-02-15T08:12:29;8.73;;;3.80;;
2257;SDS011;1136;51.574;7.706;2024-02-15T08:15:34;4.90;;;3.17;;
2257;SDS011;1136;51.574;7.706;2024-02-15T08:18:38;5.67;;;4.07;;
2257;SDS011;1136;51.574;7.706;2024-02-15T08:21:43;4.30;;;3.70;;
2257;SDS011;1136;51.574;7.706;2024-02-15T08:24:52;9.60;;;3.60;;
2257;SDS011;1136;51.574;7.706;2024-02-15T08:27:56;3.90;;;3.50;;
2257;SDS011;1136;51.574;7.706;2024-02-15T08:31:00;5.70;;;3.40;;
2257;SDS011;1136;51.574;7.706;2024-02-15T08:34:04;8.83;;;3.30;;
2257;SDS011;1136;51.574;7.706;2024-02-15T08:37:14;6.53;;;3.90;;
2257;SDS011;1136;51.574;7.706;2024-02-15T08:40:18;3.80;;;3.50;;
2257;SDS011;1136;51.574;7.706;2024-02-15T08:43:28;3.60;;;2.87;;
2257;SDS011;1136;51.574;7.706;2024-02-15T08:46:32;6.00;;;3.47;;
2257;SDS011;1136;51.574;7.706;2024-02-15T08:49:36;7.93;;;3.00;;
2257;SDS011;1136;51.574;7.706;2024-02-15T08:52:41;8.10;;;3.20;;
2257;SDS011;1136;51.574;7.706;2024-02-15T08:55:45;7.43;;;3.70;;
2257;SDS011;1136;51.574;7.706;2024-02-15T08:58:50;6.47;;;3.30;;
2257;SDS011;1136;51.574;7.706;2024-02-15T09:01:54;7.50;;;3.50;;
2257;SDS011;1136;51.574;7.706;2024-02-15T09:04:59;7.83;;;3.20;;
2257;SDS011;1136;51.574;7.706;2024-02-15T09:08:04;4.83;;;2.80;;
2257;SDS011;1136;51.574;7.706;2024-02-15T09:11:08;5.90;;;2.83;;
2257;SDS011;1136;51.574;7.706;2024-02-15T09:14:16;6.20;;;2.97;;
2257;SDS011;1136;51.574;7.706;2024-02-15T09:17:21;4.57;;;3.10;;
2257;SDS011;1136;51.574;7.706;2024-02-15T09:20:25;6.03;;;2.80;;
2257;SDS011;1136;51.574;7.706;2024-02-15T09:23:32;6.40;;;3.60;;
2257;SDS011;1136;51.574;7.706;2024-02-15T09:26:36;3.53;;;3.20;;
2257;SDS011;1136;51.574;7.706;2024-02-15T09:29:40;5.27;;;2.83;;
2257;SDS011;1136;51.574;7.706;2024-02-15T09:32:46;5.57;;;3.70;;
2257;SDS011;1136;51.574;7.706;2024-02-15T09:35:50;3.50;;;3.20;;
2257;SDS011;1136;51.574;7.706;2024-02-15T09:38:54;6.07;;;3.17;;
2257;SDS011;1136;51.574;7.706;2024-02-15T09:41:59;6.97;;;2.70;;
2257;SDS011;1136;51.574;7.706;2024-02-15T09:45:03;4.90;;;2.90;;
2257;SDS011;1136;51.574;7.706;2024-02-15T09:48:07;3.50;;;3.00;;
2257;SDS011;1136;51.574;7.706;2024-02-15T09:51:14;3.90;;;2.60;;
2257;SDS011;1136;51.574;7.706;2024-02-15T09:54:20;3.57;;;2.97;;
2257;SDS011;1136;51.574;7.706;2024-02-15T09:57:27;4.87;;;2.40;;
2257;SDS011;1136;51.574;7.706;2024-02-15T10:00:31;5.80;;;2.70;;
2257;SDS011;1136;51.574;7.706;2024-02-15T10:03:38;3.73;;;2.73;;
2257;SDS011;1136;51.574;7.706;2024-02-15T10:06:46;2.73;;;2.53;;
2257;SDS011;1136;51.574;7.706;2024-02-15T10:09:51;2.47;;;2.00;;
2257;SDS011;1136;51.574;7.706;2024-02-15T10:12:56;1.77;;;1.67;;
2257;SDS011;1136;51.574;7.706;2024-02-15T10:16:19;3.77;;;3.10;;
2257;SDS011;1136;51.574;7.706;2024-02-15T10:19:24;2.60;;;2.23;;
2257;SDS011;1136;51.574;7.706;2024-02-15T10:22:29;3.30;;;2.10;;
2257;SDS011;1136;51.574;7.706;2024-02-15T10:25:33;3.87;;;2.20;;
2257;SDS011;1136;51.574;7.706;2024-02-15T10:28:37;2.63;;;2.30;;
2257;SDS011;1136;51.574;7.706;2024-02-15T10:31:52;3.90;;;2.40;;
2257;SDS011;1136;51.574;7.706;2024-02-15T10:35:00;4.37;;;2.63;;
2257;SDS011;1136;51.574;7.706;2024-02-15T10:38:08;2.27;;;2.17;;
2257;SDS011;1136;51.574;7.706;2024-02-15T10:41:14;3.10;;;2.50;;
2257;SDS011;1136;51.574;7.706;2024-02-15T10:44:20;4.40;;;2.73;;
2257;SDS011;1136;51.574;7.706;2024-02-15T10:47:25;5.07;;;3.13;;
2257;SDS011;1136;51.574;7.706;2024-02-15T10:50:29;2.07;;;1.87;;
2257;SDS011;1136;51.574;7.706;2024-02-15T10:53:34;1.90;;;1.77;;
2257;SDS011;1136;51.574;7.706;2024-02-15T10:56:43;4.00;;;2.60;;
2257;SDS011;1136;51.574;7.706;2024-02-15T10:59:54;4.87;;;3.93;;
2257;SDS011;1136;51.574;7.706;2024-02-15T11:03:02;5.00;;;3.77;;
2257;SDS011;1136;51.574;7.706;2024-02-15T11:06:09;5.10;;;2.63;;
2257;SDS011;1136;51.574;7.706;2024-02-15T11:09:14;3.53;;;2.30;;
2257;SDS011;1136;51.574;7.706;2024-02-15T11:12:19;11.10;;;2.90;;
2257;SDS011;1136;51.574;7.706;2024-02-15T11:18:44;7.20;;;2.70;;
2257;SDS011;1136;51.574;7.706;2024-02-15T11:21:54;5.80;;;2.67;;
2257;SDS011;1136;51.574;7.706;2024-02-15T11:25:02;4.50;;;2.70;;
2257;SDS011;1136;51.574;7.706;2024-02-15T11:35:14;2.63;;;2.07;;
2257;SDS011;1136;51.574;7.706;2024-02-15T11:38:29;2.93;;;1.93;;
2257;SDS011;1136;51.574;7.706;2024-02-15T11:41:34;2.43;;;1.90;;
2257;SDS011;1136;51.574;7.706;2024-02-15T11:44:38;3.80;;;2.30;;
2257;SDS011;1136;51.574;7.706;2024-02-15T11:47:42;6.07;;;2.23;;
2257;SDS011;1136;51.574;7.706;2024-02-15T11:50:47;7.23;;;1.80;;
2257;SDS011;1136;51.574;7.706;2024-02-15T11:54:25;4.07;;;2.30;;
2257;SDS011;1136;51.574;7.706;2024-02-15T11:57:24;4.30;;;2.20;;
2257;SDS011;1136;51.574;7.706;2024-02-15T12:00:40;11.50;;;2.10;;
2257;SDS011;1136;51.574;7.706;2024-02-15T12:04:03;3.17;;;2.50;;
2257;SDS011;1136;51.574;7.706;2024-02-15T12:07:27;4.60;;;2.10;;
2257;SDS011;1136;51.574;7.706;2024-02-15T12:11:00;5.43;;;2.60;;
2257;SDS011;1136;51.574;7.706;2024-02-15T12:14:22;3.17;;;2.33;;
2257;SDS011;1136;51.574;7.706;2024-02-15T12:17:45;2.97;;;2.67;;
2257;SDS011;1136;51.574;7.706;2024-02-15T12:21:09;3.13;;;2.83;;
2257;SDS011;1136;51.574;7.706;2024-02-15T12:24:13;4.33;;;2.73;;
2257;SDS011;1136;51.574;7.706;2024-02-15T12:27:19;3.77;;;2.30;;
2257;SDS011;1136;51.574;7.706;2024-02-15T12:30:24;3.20;;;2.37;;
2257;SDS011;1136;51.574;7.706;2024-02-15T12:33:29;3.43;;;2.13;;
2257;SDS011;1136;51.574;7.706;2024-02-15T12:36:35;1.70;;;1.60;;
2257;SDS011;1136;51.574;7.706;2024-02-15T12:39:41;2.30;;;1.77;;
2257;SDS011;1136;51.574;7.706;2024-02-15T12:42:46;1.70;;;1.60;;
2257;SDS011;1136;51.574;7.706;2024-02-15T12:45:54;3.90;;;1.77;;
2257;SDS011;1136;51.574;7.706;2024-02-15T12:49:07;3.40;;;1.60;;
2257;SDS011;1136;51.574;7.706;2024-02-15T12:52:34;2.10;;;1.60;;
2257;SDS011;1136;51.574;7.706;2024-02-15T12:55:42;3.83;;;1.60;;
2257;SDS011;1136;51.574;7.706;2024-02-15T12:58:46;3.40;;;1.50;;
2257;SDS011;1136;51.574;7.706;2024-02-15T13:01:50;2.97;;;1.90;;
2257;SDS011;1136;51.574;7.706;2024-02-15T13:04:58;4.73;;;1.77;;
2257;SDS011;1136;51.574;7.706;2024-02-15T13:08:02;3.20;;;2.10;;
2257;SDS011;1136;51.574;7.706;2024-02-15T13:11:06;2.43;;;1.30;;
2257;SDS011;1136;51.574;7.706;2024-02-15T13:14:13;3.80;;;1.77;;
2257;SDS011;1136;51.574;7.706;2024-02-15T13:17:17;2.60;;;1.80;;
2257;SDS011;1136;51.574;7.706;2024-02-15T13:20:21;2.83;;;1.63;;
2257;SDS011;1136;51.574;7.706;2024-02-15T13:23:39;3.47;;;1.60;;
2257;SDS011;1136;51.574;7.706;2024-02-15T13:26:44;1.93;;;1.40;;
2257;SDS011;1136;51.574;7.706;2024-02-15T13:29:48;4.40;;;1.90;;
2257;SDS011;1136;51.574;7.706;2024-02-15T13:32:53;4.33;;;1.77;;
2257;SDS011;1136;51.574;7.706;2024-02-15T13:36:02;2.60;;;1.30;;
2257;SDS011;1136;51.574;7.706;2024-02-15T13:39:07;6.37;;;1.67;;
2257;SDS011;1136;51.574;7.706;2024-02-15T13:42:13;4.70;;;2.07;;
2257;SDS011;1136;51.574;7.706;2024-02-15T13:48:55;2.53;;;1.70;;
2257;SDS011;1136;51.574;7.706;2024-02-15T13:52:01;2.80;;;2.10;;
2257;SDS011;1136;51.574;7.706;2024-02-15T13:55:06;4.50;;;1.60;;
2257;SDS011;1136;51.574;7.706;2024-02-15T13:58:11;4.00;;;1.90;;
2257;SDS011;1136;51.574;7.706;2024-02-15T14:01:17;3.10;;;1.30;;
2257;SDS011;1136;51.574;7.706;2024-02-15T14:04:22;4.00;;;1.70;;
2257;SDS011;1136;51.574;7.706;2024-02-15T14:07:26;2.47;;;1.93;;
2257;SDS011;1136;51.574;7.706;2024-02-15T14:10:31;2.30;;;1.40;;
2257;SDS011;1136;51.574;7.706;2024-02-15T14:13:38;3.10;;;1.60;;
2257;SDS011;1136;51.574;7.706;2024-02-15T14:16:42;2.30;;;1.30;;
2257;SDS011;1136;51.574;7.706;2024-02-15T14:19:46;4.33;;;1.90;;
2257;SDS011;1136;51.574;7.706;2024-02-15T14:22:51;4.23;;;1.90;;
2257;SDS011;1136;51.574;7.706;2024-02-15T14:26:01;4.70;;;1.70;;
2257;SDS011;1136;51.574;7.706;2024-02-15T14:29:06;1.90;;;1.40;;
2257;SDS011;1136;51.574;7.706;2024-02-15T14:32:11;3.90;;;1.90;;
2257;SDS011;1136;51.574;7.706;2024-02-15T14:35:34;2.73;;;1.60;;
2257;SDS011;1136;51.574;7.706;2024-02-15T14:38:39;4.90;;;2.17;;
2257;SDS011;1136;51.574;7.706;2024-02-15T14:41:43;1.50;;;1.30;;
2257;SDS011;1136;51.574;7.706;2024-02-15T14:44:53;2.53;;;1.50;;
2257;SDS011;1136;51.574;7.706;2024-02-15T14:47:58;2.13;;;1.60;;
2257;SDS011;1136;51.574;7.706;2024-02-15T14:51:03;2.47;;;1.50;;
2257;SDS011;1136;51.574;7.706;2024-02-15T14:54:08;5.43;;;1.50;;
2257;SDS011;1136;51.574;7.706;2024-02-15T14:57:12;3.73;;;1.60;;
2257;SDS011;1136;51.574;7.706;2024-02-15T15:00:17;3.03;;;2.20;;
2257;SDS011;1136;51.574;7.706;2024-02-15T15:03:23;3.67;;;1.57;;
2257;SDS011;1136;51.574;7.706;2024-02-15T15:06:31;3.63;;;1.60;;
2257;SDS011;1136;51.574;7.706;2024-02-15T15:09:54;2.03;;;1.57;;
2257;SDS011;1136;51.574;7.706;2024-02-15T15:13:17;4.50;;;1.70;;
2257;SDS011;1136;51.574;7.706;2024-02-15T15:16:22;2.73;;;1.60;;
2257;SDS011;1136;51.574;7.706;2024-02-15T15:19:29;2.30;;;1.50;;
2257;SDS011;1136;51.574;7.706;2024-02-15T15:22:34;3.80;;;2.17;;
2257;SDS011;1136;51.574;7.706;2024-02-15T15:25:41;4.50;;;2.03;;
2257;SDS011;1136;51.574;7.706;2024-02-15T15:28:46;5.23;;;1.87;;
2257;SDS011;1136;51.574;7.706;2024-02-15T15:31:52;2.10;;;1.70;;
2257;SDS011;1136;51.574;7.706;2024-02-15T15:34:56;2.03;;;1.63;;
2257;SDS011;1136;51.574;7.706;2024-02-15T15:38:01;3.00;;;1.80;;
2257;SDS011;1136;51.574;7.706;2024-02-15T15:41:09;3.43;;;1.70;;
2257;SDS011;1136;51.574;7.706;2024-02-15T15:44:13;1.93;;;1.53;;
2257;SDS011;1136;51.574;7.706;2024-02-15T15:47:17;2.50;;;2.30;;
2257;SDS011;1136;51.574;7.706;2024-02-15T15:50:21;1.77;;;1.50;;
2257;SDS011;1136;51.574;7.706;2024-02-15T15:53:26;2.17;;;1.40;;
2257;SDS011;1136;51.574;7.706;2024-02-15T15:56:32;6.93;;;2.10;;
2257;SDS011;1136;51.574;7.706;2024-02-15T15:59:37;2.40;;;2.07;;
2257;SDS011;1136;51.574;7.706;2024-02-15T16:02:41;2.43;;;2.03;;
2257;SDS011;1136;51.574;7.706;2024-02-15T16:05:50;3.40;;;1.80;;
2257;SDS011;1136;51.574;7.706;2024-02-15T16:08:54;5.10;;;1.80;;
2257;SDS011;1136;51.574;7.706;2024-02-15T16:11:58;1.87;;;1.73;;
2257;SDS011;1136;51.574;7.706;2024-02-15T16:15:03;2.83;;;2.10;;
2257;SDS011;1136;51.574;7.706;2024-02-15T16:18:09;2.07;;;1.93;;
2257;SDS011;1136;51.574;7.706;2024-02-15T16:21:13;2.10;;;1.80;;
2257;SDS011;1136;51.574;7.706;2024-02-15T16:24:18;5.83;;;2.23;;
2257;SDS011;1136;51.574;7.706;2024-02-15T16:27:22;3.47;;;1.90;;
2257;SDS011;1136;51.574;7.706;2024-02-15T16:30:26;4.27;;;2.40;;
2257;SDS011;1136;51.574;7.706;2024-02-15T16:33:30;3.50;;;2.00;;
2257;SDS011;1136;51.574;7.706;2024-02-15T16:36:35;7.00;;;5.40;;
2257;SDS011;1136;51.574;7.706;2024-02-15T16:39:38;4.43;;;4.13;;
2257;SDS011;1136;51.574;7.706;2024-02-15T16:42:46;3.47;;;2.27;;
2257;SDS011;1136;51.574;7.706;2024-02-15T16:45:53;3.63;;;1.97;;
2257;SDS011;1136;51.574;7.706;2024-02-15T16:48:57;12.30;;;2.20;;
2257;SDS011;1136;51.574;7.706;2024-02-15T16:52:02;6.50;;;2.03;;
2257;SDS011;1136;51.574;7.706;2024-02-15T16:55:06;4.43;;;2.10;;
2257;SDS011;1136;51.574;7.706;2024-02-15T16:58:10;3.50;;;2.50;;
2257;SDS011;1136;51.574;7.706;2024-02-15T17:01:14;7.10;;;2.50;;
2257;SDS011;1136;51.574;7.706;2024-02-15T17:04:19;6.73;;;2.67;;
2257;SDS011;1136;51.574;7.706;2024-02-15T17:07:23;5.13;;;2.87;;
2257;SDS011;1136;51.574;7.706;2024-02-15T17:10:28;2.10;;;1.90;;
2257;SDS011;1136;51.574;7.706;2024-02-15T17:13:32;2.40;;;2.00;;
2257;SDS011;1136;51.574;7.706;2024-02-15T17:16:36;4.23;;;2.30;;
2257;SDS011;1136;51.574;7.706;2024-02-15T17:19:45;8.33;;;2.43;;
2257;SDS011;1136;51.574;7.706;2024-02-15T17:22:50;4.67;;;2.30;;
2257;SDS011;1136;51.574;7.706;2024-02-15T17:25:54;2.97;;;2.10;;
2257;SDS011;1136;51.574;7.706;2024-02-15T17:28:58;2.90;;;2.60;;
2257;SDS011;1136;51.574;7.706;2024-02-15T17:32:07;3.27;;;2.97;;
2257;SDS011;1136;51.574;7.706;2024-02-15T17:35:12;3.73;;;2.00;;
2257;SDS011;1136;51.574;7.706;2024-02-15T17:38:20;2.83;;;2.10;;
2257;SDS011;1136;51.574;7.706;2024-02-15T17:41:24;3.70;;;3.40;;
2257;SDS011;1136;51.574;7.706;2024-02-15T17:44:29;4.67;;;4.27;;
2257;SDS011;1136;51.574;7.706;2024-02-15T17:47:33;6.83;;;4.03;;
2257;SDS011;1136;51.574;7.706;2024-02-15T17:50:37;5.30;;;3.03;;
2257;SDS011;1136;51.574;7.706;2024-02-15T17:53:41;4.63;;;3.50;;
2257;SDS011;1136;51.574;7.706;2024-02-15T17:56:48;4.27;;;3.87;;
2257;SDS011;1136;51.574;7.706;2024-02-15T17:59:52;6.17;;;3.17;;
2257;SDS011;1136;51.574;7.706;2024-02-15T18:02:57;4.57;;;2.40;;
2257;SDS011;1136;51.574;7.706;2024-02-15T18:06:02;5.10;;;2.87;;
2257;SDS011;1136;51.574;7.706;2024-02-15T18:09:07;7.43;;;6.73;;
2257;SDS011;1136;51.574;7.706;2024-02-15T18:12:12;3.13;;;2.83;;
2257;SDS011;1136;51.574;7.706;2024-02-15T18:15:16;6.50;;;2.17;;
2257;SDS011;1136;51.574;7.706;2024-02-15T18:18:26;3.70;;;2.20;;
2257;SDS011;1136;51.574;7.706;2024-02-15T18:21:32;4.33;;;2.10;;
2257;SDS011;1136;51.574;7.706;2024-02-15T18:24:40;4.03;;;2.47;;
2257;SDS011;1136;51.574;7.706;2024-02-15T18:27:44;5.57;;;2.40;;
2257;SDS011;1136;51.574;7.706;2024-02-15T18:30:50;2.60;;;2.40;;
2257;SDS011;1136;51.574;7.706;2024-02-15T18:33:55;3.47;;;3.17;;
2257;SDS011;1136;51.574;7.706;2024-02-15T18:37:00;3.13;;;2.40;;
2257;SDS011;1136;51.574;7.706;2024-02-15T18:40:05;3.70;;;2.67;;
2257;SDS011;1136;51.574;7.706;2024-02-15T18:43:26;4.40;;;2.20;;
2257;SDS011;1136;51.574;7.706;2024-02-15T18:46:31;2.13;;;1.80;;
2257;SDS011;1136;51.574;7.706;2024-02-15T18:49:36;2.50;;;1.97;;
2257;SDS011;1136;51.574;7.706;2024-02-15T18:52:49;2.50;;;2.30;;
2257;SDS011;1136;51.574;7.706;2024-02-15T18:55:54;2.67;;;2.13;;
2257;SDS011;1136;51.574;7.706;2024-02-15T18:58:59;2.93;;;1.53;;
2257;SDS011;1136;51.574;7.706;2024-02-15T19:02:08;2.37;;;1.50;;
2257;SDS011;1136;51.574;7.706;2024-02-15T19:05:15;2.87;;;1.93;;
2257;SDS011;1136;51.574;7.706;2024-02-15T19:08:20;3.87;;;2.50;;
2257;SDS011;1136;51.574;7.706;2024-02-15T19:11:25;4.13;;;2.30;;
2257;SDS011;1136;51.574;7.706;2024-02-15T19:14:30;2.57;;;1.80;;
2257;SDS011;1136;51.574;7.706;2024-02-15T19:17:35;4.50;;;2.30;;
2257;SDS011;1136;51.574;7.706;2024-02-15T19:20:40;4.70;;;2.30;;
2257;SDS011;1136;51.574;7.706;2024-02-15T19:23:44;2.97;;;2.23;;